createdAt,value
2023-04-16T00:00:50.541Z,78271.56
2023-04-16T00:02:23.595Z,78277.50
2023-04-16T00:03:56.857Z,78269.56
2023-04-16T00:05:30.320Z,78277.50
2023-04-16T00:07:03.398Z,78285.41
2023-04-16T00:08:37.532Z,78317.06
2023-04-16T00:10:10.638Z,78289.34
2023-04-16T00:11:43.723Z,78291.34
2023-04-16T00:13:16.776Z,78301.22
2023-04-16T00:14:49.907Z,78301.22
2023-04-16T00:16:22.866Z,78293.31
2023-04-16T00:17:56.136Z,78297.28
2023-04-16T00:19:29.169Z,78291.34
2023-04-16T00:21:02.085Z,78293.31
2023-04-16T00:22:35.466Z,78285.41
2023-04-16T00:24:08.653Z,78285.41
2023-04-16T00:25:43.080Z,78277.50
2023-04-16T00:27:16.141Z,78269.56
2023-04-16T00:28:49.064Z,78269.56
2023-04-16T00:30:23.280Z,78293.31
2023-04-16T00:31:56.694Z,78273.53
2023-04-16T00:33:30.407Z,78285.41
2023-04-16T00:35:03.463Z,78281.44
2023-04-16T00:36:36.847Z,78283.44
2023-04-16T00:38:09.836Z,78293.31
2023-04-16T00:39:42.751Z,78295.28
2023-04-16T00:41:15.807Z,78289.34
2023-04-16T00:42:48.811Z,78289.34
2023-04-16T00:44:21.847Z,78289.34
2023-04-16T00:45:57.529Z,78291.34
2023-04-16T00:47:31.525Z,78293.31
2023-04-16T00:49:04.967Z,78291.34
2023-04-16T00:50:37.972Z,78295.28
2023-04-16T00:52:12.396Z,78321.00
2023-04-16T00:53:47.111Z,78291.34
2023-04-16T00:55:21.713Z,78289.34
2023-04-16T00:56:55.088Z,78287.38
2023-04-16T00:58:28.958Z,78279.47
2023-04-16T01:00:02.984Z,78273.53
2023-04-16T01:01:37.084Z,78317.06
2023-04-16T01:03:10.763Z,78273.53
2023-04-16T01:04:43.749Z,78275.50
2023-04-16T01:06:18.458Z,78273.53
2023-04-16T01:07:51.863Z,78273.53
2023-04-16T01:09:24.858Z,78279.47
2023-04-16T01:10:57.729Z,78283.44
2023-04-16T01:12:30.954Z,78287.38
2023-04-16T01:14:04.524Z,78289.34
2023-04-16T01:15:38.043Z,78301.22
2023-04-16T01:17:11.063Z,78321.00
2023-04-16T01:18:44.400Z,78301.22
2023-04-16T01:20:17.470Z,78315.06
2023-04-16T01:21:50.829Z,78313.09
2023-04-16T01:23:23.925Z,78301.22
2023-04-16T01:24:56.770Z,78299.25
2023-04-16T01:26:29.995Z,78299.25
2023-04-16T01:28:04.348Z,78293.31
2023-04-16T01:29:37.828Z,78285.41
2023-04-16T01:31:10.988Z,78283.44
2023-04-16T01:33:04.470Z,78277.50
2023-04-16T01:34:38.023Z,78277.50
2023-04-16T01:36:10.994Z,78271.56
2023-04-16T01:37:44.001Z,78269.56
2023-04-16T01:39:17.593Z,78269.56
2023-04-16T01:40:50.636Z,78273.53
2023-04-16T01:42:23.551Z,78263.63
2023-04-16T01:43:56.742Z,78269.56
2023-04-16T01:45:32.450Z,78253.75
2023-04-16T01:47:05.608Z,78261.66
2023-04-16T01:48:38.913Z,78255.72
2023-04-16T01:50:11.996Z,78251.78
2023-04-16T01:51:45.629Z,78273.53
2023-04-16T01:53:19.023Z,78233.97
2023-04-16T01:54:52.452Z,78216.16
2023-04-16T01:56:25.640Z,78067.81
2023-04-16T01:57:58.695Z,77858.13
2023-04-16T01:59:35.374Z,77721.66
2023-04-16T02:01:08.946Z,77599.00
2023-04-16T02:02:44.156Z,77502.09
2023-04-16T02:04:19.143Z,77478.38
2023-04-16T02:05:52.637Z,77606.94
2023-04-16T02:07:26.234Z,77466.50
2023-04-16T02:08:59.049Z,77355.75
2023-04-16T02:10:32.264Z,77308.28
2023-04-16T02:12:05.774Z,77197.53
2023-04-16T02:13:38.913Z,77150.06
2023-04-16T02:15:12.852Z,77068.97
2023-04-16T02:16:45.936Z,77039.31
2023-04-16T02:18:28.199Z,76968.13
2023-04-16T02:20:03.614Z,76983.94
2023-04-16T02:21:37.118Z,76900.88
2023-04-16T02:23:12.209Z,76898.91
2023-04-16T02:24:45.382Z,76873.19
2023-04-16T02:26:18.542Z,76764.44
2023-04-16T02:27:52.594Z,76726.84
2023-04-16T02:29:47.079Z,76726.84
2023-04-16T02:31:23.731Z,76730.81
2023-04-16T02:32:57.026Z,76716.97
2023-04-16T02:34:30.406Z,76693.25
2023-04-16T02:36:03.353Z,76643.81
2023-04-16T02:37:36.322Z,76580.53
2023-04-16T02:39:09.839Z,76628.00
2023-04-16T02:40:42.959Z,76645.78
2023-04-16T02:42:16.548Z,76600.31
2023-04-16T02:43:49.562Z,76517.25
2023-04-16T02:45:22.629Z,76505.38
2023-04-16T02:46:55.651Z,76477.72
2023-04-16T02:48:29.013Z,76503.41
2023-04-16T02:50:01.970Z,76483.63
2023-04-16T02:51:36.302Z,76398.63
2023-04-16T02:53:10.977Z,76341.28
2023-04-16T02:54:44.158Z,76283.94
2023-04-16T02:56:16.982Z,76283.94
2023-04-16T02:57:49.859Z,76250.31
2023-04-16T02:59:22.969Z,76214.72
2023-04-16T03:00:56.454Z,76169.25
2023-04-16T03:02:29.471Z,76159.38
2023-04-16T03:04:02.553Z,76056.56
2023-04-16T03:05:35.267Z,76131.69
2023-04-16T03:07:09.619Z,76155.41
2023-04-16T03:08:42.472Z,76026.91
2023-04-16T03:10:15.185Z,76050.63
2023-04-16T03:11:48.013Z,75995.25
2023-04-16T03:13:21.978Z,75943.88
2023-04-16T03:14:54.972Z,75841.06
2023-04-16T03:16:27.935Z,75837.09
2023-04-16T03:18:01.143Z,75864.78
2023-04-16T03:19:34.414Z,75908.28
2023-04-16T03:21:07.290Z,75928.03
2023-04-16T03:22:40.901Z,75932.00
2023-04-16T03:24:13.915Z,75912.22
2023-04-16T03:25:48.353Z,75837.09
2023-04-16T03:27:24.090Z,75843.03
2023-04-16T03:28:57.753Z,75955.72
2023-04-16T03:30:31.004Z,75945.84
2023-04-16T03:32:04.439Z,75898.38
2023-04-16T03:33:37.842Z,75833.16
2023-04-16T03:35:12.023Z,75900.38
2023-04-16T03:36:44.981Z,75811.41
2023-04-16T03:38:18.507Z,75817.31
2023-04-16T03:39:52.742Z,75951.78
2023-04-16T03:41:25.787Z,75906.28
2023-04-16T03:42:58.570Z,75724.41
2023-04-16T03:44:31.989Z,75906.28
2023-04-16T03:46:05.205Z,75823.25
2023-04-16T03:47:38.179Z,75900.38
2023-04-16T03:49:11.794Z,75935.94
2023-04-16T03:50:48.697Z,75872.69
2023-04-16T03:52:24.240Z,75880.59
2023-04-16T03:53:59.156Z,75904.31
2023-04-16T03:55:33.526Z,75805.47
2023-04-16T03:57:06.551Z,75665.09
2023-04-16T03:58:40.595Z,75730.34
2023-04-16T04:00:14.641Z,75732.31
2023-04-16T04:01:47.516Z,75730.34
2023-04-16T04:03:21.272Z,75716.50
2023-04-16T04:04:56.279Z,75736.28
2023-04-16T04:06:29.552Z,75843.03
2023-04-16T04:08:03.488Z,75781.75
2023-04-16T04:09:37.618Z,75827.22
2023-04-16T04:11:10.590Z,75890.47
2023-04-16T04:12:45.192Z,75841.06
2023-04-16T04:14:18.865Z,75870.72
2023-04-16T04:15:52.270Z,75845.00
2023-04-16T04:17:26.615Z,75955.72
2023-04-16T04:19:00.690Z,75797.56
2023-04-16T04:20:33.702Z,75821.28
2023-04-16T04:22:08.521Z,75835.13
2023-04-16T04:23:44.000Z,75760.00
2023-04-16T04:25:18.213Z,75843.03
2023-04-16T04:26:51.254Z,75918.16
2023-04-16T04:28:24.702Z,75870.72
2023-04-16T04:29:58.352Z,75852.91
2023-04-16T04:31:31.561Z,75932.00
2023-04-16T04:33:04.764Z,75971.53
2023-04-16T04:34:38.069Z,75959.69
2023-04-16T04:36:12.936Z,75754.06
2023-04-16T04:37:46.253Z,75734.28
2023-04-16T04:39:23.354Z,75763.94
2023-04-16T04:40:56.896Z,75576.13
2023-04-16T04:42:32.440Z,75694.75
2023-04-16T04:44:05.189Z,75584.06
2023-04-16T04:45:38.250Z,75639.41
2023-04-16T04:47:11.582Z,75765.94
2023-04-16T04:48:44.616Z,75712.56
2023-04-16T04:50:17.821Z,75781.75
2023-04-16T04:51:50.748Z,75597.88
2023-04-16T04:53:23.828Z,75706.63
2023-04-16T04:54:57.457Z,75647.31
2023-04-16T04:56:30.379Z,75696.72
2023-04-16T04:58:05.056Z,75785.69
2023-04-16T04:59:38.336Z,75805.47
2023-04-16T05:01:11.433Z,75924.09
2023-04-16T05:02:44.459Z,75811.41
2023-04-16T05:04:18.212Z,75651.25
2023-04-16T05:05:51.307Z,75890.47
2023-04-16T05:07:24.311Z,75817.31
2023-04-16T05:08:56.911Z,75821.28
2023-04-16T05:10:29.767Z,75930.03
2023-04-16T05:12:02.829Z,75761.97
2023-04-16T05:13:35.756Z,75611.72
2023-04-16T05:15:09.360Z,75609.75
2023-04-16T05:16:42.304Z,75696.72
2023-04-16T05:18:15.437Z,75864.78
2023-04-16T05:19:48.610Z,75864.78
2023-04-16T05:21:21.382Z,75769.88
2023-04-16T05:22:55.654Z,75825.25
2023-04-16T05:24:28.829Z,75876.63
2023-04-16T05:26:01.780Z,75710.56
2023-04-16T05:27:34.619Z,75932.00
2023-04-16T05:29:07.390Z,75888.50
2023-04-16T05:30:40.672Z,75908.28
2023-04-16T05:32:13.934Z,75868.72
2023-04-16T05:33:47.066Z,75740.22
2023-04-16T05:35:19.927Z,75793.59
2023-04-16T05:36:52.929Z,75673.00
2023-04-16T05:38:25.939Z,75682.91
2023-04-16T05:39:59.147Z,75825.25
2023-04-16T05:41:32.075Z,75760.00
2023-04-16T05:43:04.911Z,75947.81
2023-04-16T05:44:37.942Z,76026.91
2023-04-16T05:46:11.275Z,76105.97
2023-04-16T05:47:44.421Z,75971.53
2023-04-16T05:49:19.200Z,75852.91
2023-04-16T05:50:52.434Z,75821.28
2023-04-16T05:52:25.352Z,75825.25
2023-04-16T05:53:58.031Z,75884.56
2023-04-16T05:55:31.074Z,75991.31
2023-04-16T05:57:04.193Z,75955.72
2023-04-16T05:58:37.192Z,75930.03
2023-04-16T06:00:10.012Z,75916.19
2023-04-16T06:01:46.103Z,75902.34
2023-04-16T06:03:19.355Z,75821.28
2023-04-16T06:04:52.300Z,75801.50
2023-04-16T06:06:25.014Z,75734.28
2023-04-16T06:07:58.077Z,75694.75
2023-04-16T06:09:31.165Z,75797.56
2023-04-16T06:11:04.283Z,75845.00
2023-04-16T06:12:37.264Z,76028.88
2023-04-16T06:14:10.300Z,75979.44
2023-04-16T06:15:43.168Z,75920.13
2023-04-16T06:17:16.866Z,75829.19
2023-04-16T06:18:49.814Z,75769.88
2023-04-16T06:20:23.518Z,75615.69
2023-04-16T06:21:57.628Z,75752.09
2023-04-16T06:23:30.645Z,75663.13
2023-04-16T06:25:03.419Z,75825.25
2023-04-16T06:26:36.239Z,75880.59
2023-04-16T06:28:09.369Z,75977.47
2023-04-16T06:29:42.379Z,75888.50
2023-04-16T06:31:15.063Z,75912.22
2023-04-16T06:32:50.061Z,76086.22
2023-04-16T06:34:23.349Z,76236.47
2023-04-16T06:35:56.924Z,76054.56
2023-04-16T06:37:30.115Z,76007.13
2023-04-16T06:39:03.073Z,76104.00
2023-04-16T06:40:37.821Z,76220.66
2023-04-16T06:42:10.799Z,76165.31
2023-04-16T06:43:44.722Z,76208.78
2023-04-16T06:45:17.639Z,76218.69
2023-04-16T06:46:51.896Z,76311.63
2023-04-16T06:48:24.822Z,76345.22
2023-04-16T06:49:57.585Z,76363.03
2023-04-16T06:51:30.721Z,76357.09
2023-04-16T06:53:04.122Z,76347.19
2023-04-16T06:54:37.121Z,76228.56
2023-04-16T06:56:09.825Z,76240.44
2023-04-16T06:57:43.057Z,76240.44
2023-04-16T06:59:16.016Z,76226.59
2023-04-16T07:00:49.671Z,76228.56
2023-04-16T07:02:22.826Z,76270.09
2023-04-16T07:03:56.374Z,76303.69
2023-04-16T07:05:29.613Z,76256.25
2023-04-16T07:07:03.112Z,76349.19
2023-04-16T07:08:36.269Z,76376.88
2023-04-16T07:10:10.196Z,76372.91
2023-04-16T07:11:44.446Z,76467.81
2023-04-16T07:13:18.911Z,76452.00
2023-04-16T07:14:52.063Z,76438.16
2023-04-16T07:16:25.266Z,76406.53
2023-04-16T07:17:58.361Z,76343.25
2023-04-16T07:19:33.089Z,76370.94
2023-04-16T07:21:06.090Z,76382.78
2023-04-16T07:22:39.158Z,76351.16
2023-04-16T07:24:12.184Z,76370.94
2023-04-16T07:25:46.025Z,76406.53
2023-04-16T07:27:18.931Z,76404.53
2023-04-16T07:28:52.018Z,76434.19
2023-04-16T07:30:25.083Z,76444.09
2023-04-16T07:31:58.349Z,76487.59
2023-04-16T07:33:31.500Z,76483.63
2023-04-16T07:35:04.403Z,76503.41
2023-04-16T07:36:37.281Z,76515.28
2023-04-16T07:38:10.347Z,76495.50
2023-04-16T07:39:42.998Z,76422.34
2023-04-16T07:41:16.115Z,76442.13
2023-04-16T07:42:49.430Z,76444.09
2023-04-16T07:44:22.506Z,76416.41
2023-04-16T07:45:55.480Z,76394.66
2023-04-16T07:47:28.829Z,76402.56
2023-04-16T07:49:01.849Z,76402.56
2023-04-16T07:50:34.480Z,76355.13
2023-04-16T07:52:07.252Z,76319.53
2023-04-16T07:53:40.089Z,76270.09
2023-04-16T07:55:13.022Z,76305.69
2023-04-16T07:56:45.677Z,76287.88
2023-04-16T07:58:18.815Z,76248.34
2023-04-16T07:59:55.988Z,76250.31
2023-04-16T08:01:28.863Z,76268.13
2023-04-16T08:03:01.785Z,76244.38
2023-04-16T08:04:34.971Z,76256.25
2023-04-16T08:06:08.165Z,76327.44
2023-04-16T08:07:41.269Z,76473.75
2023-04-16T08:09:14.274Z,76359.06
2023-04-16T08:10:47.218Z,76315.56
2023-04-16T08:12:21.298Z,76268.13
2023-04-16T08:13:54.444Z,76232.53
2023-04-16T08:15:27.825Z,76222.63
2023-04-16T08:17:00.966Z,76240.44
2023-04-16T08:18:34.019Z,76252.28
2023-04-16T08:20:07.534Z,76311.63
2023-04-16T08:21:41.100Z,76279.97
2023-04-16T08:23:14.192Z,76220.66
2023-04-16T08:24:46.987Z,76260.22
2023-04-16T08:26:20.098Z,76206.81
2023-04-16T08:27:53.043Z,76177.16
2023-04-16T08:29:26.651Z,76185.06
2023-04-16T08:30:59.679Z,76222.63
2023-04-16T08:32:32.706Z,76359.06
2023-04-16T08:34:06.446Z,76343.25
2023-04-16T08:35:39.367Z,76305.69
2023-04-16T08:37:12.356Z,76339.28
2023-04-16T08:38:45.601Z,76315.56
2023-04-16T08:40:18.475Z,76317.53
2023-04-16T08:41:54.279Z,76307.66
2023-04-16T08:43:27.817Z,76323.47
2023-04-16T08:45:08.928Z,76272.06
2023-04-16T08:46:43.408Z,76204.84
2023-04-16T08:48:16.863Z,76283.94
2023-04-16T08:49:50.178Z,76276.03
2023-04-16T08:51:24.416Z,76248.34
2023-04-16T08:53:11.368Z,76216.72
2023-04-16T08:54:56.906Z,76258.22
2023-04-16T08:56:32.731Z,76279.97
2023-04-16T08:58:24.074Z,76313.59
2023-04-16T08:59:58.331Z,76307.66
2023-04-16T09:01:33.113Z,76250.31
2023-04-16T09:03:07.037Z,76208.78
2023-04-16T09:04:41.694Z,76204.84
2023-04-16T09:06:16.635Z,76238.47
2023-04-16T09:07:49.487Z,76260.22
2023-04-16T09:09:22.912Z,76260.22
2023-04-16T09:10:59.912Z,76216.72
2023-04-16T09:12:33.689Z,76242.41
2023-04-16T09:14:11.520Z,76285.91
2023-04-16T09:15:44.834Z,76252.28
2023-04-16T09:17:19.270Z,76301.72
2023-04-16T09:18:53.127Z,76260.22
2023-04-16T09:20:26.461Z,76246.38
2023-04-16T09:21:59.622Z,76228.56
2023-04-16T09:23:32.406Z,76181.13
2023-04-16T09:25:06.051Z,76200.88
2023-04-16T09:26:39.051Z,76155.41
2023-04-16T09:28:12.076Z,76139.59
2023-04-16T09:29:44.792Z,76157.38
2023-04-16T09:31:20.093Z,76206.81
2023-04-16T09:33:12.154Z,76246.38
2023-04-16T09:35:02.203Z,76268.13
2023-04-16T09:36:41.637Z,76206.81
2023-04-16T09:38:14.897Z,76260.22
2023-04-16T09:40:01.590Z,76256.25
2023-04-16T09:41:39.902Z,76264.16
2023-04-16T09:43:19.530Z,76194.97
2023-04-16T09:44:53.613Z,76222.63
2023-04-16T09:46:32.069Z,76279.97
2023-04-16T09:48:06.314Z,76240.44
2023-04-16T09:49:44.737Z,76189.03
2023-04-16T09:51:17.614Z,76214.72
2023-04-16T09:52:51.907Z,76175.19
2023-04-16T09:54:26.927Z,76147.50
2023-04-16T09:56:05.889Z,76171.22
2023-04-16T09:57:39.333Z,76244.38
2023-04-16T09:59:22.585Z,76242.41
2023-04-16T10:01:19.137Z,76191.00
2023-04-16T10:03:04.983Z,76173.22
2023-04-16T10:04:53.475Z,76220.66
2023-04-16T10:06:27.821Z,76194.97
2023-04-16T10:08:04.414Z,76149.47
2023-04-16T10:09:40.885Z,76113.91
2023-04-16T10:11:14.473Z,76078.31
2023-04-16T10:12:47.859Z,76141.56
2023-04-16T10:14:20.782Z,76107.97
2023-04-16T10:15:55.842Z,76094.13
2023-04-16T10:17:32.210Z,76094.13
2023-04-16T10:19:06.032Z,76074.34
2023-04-16T10:20:39.530Z,76125.75
2023-04-16T10:22:13.091Z,76104.00
2023-04-16T10:23:47.689Z,76076.31
2023-04-16T10:25:22.021Z,76102.03
2023-04-16T10:26:56.073Z,76090.16
2023-04-16T10:28:30.008Z,76145.53
2023-04-16T10:30:04.149Z,76167.28
2023-04-16T10:31:40.322Z,76131.69
2023-04-16T10:33:14.602Z,76119.81
2023-04-16T10:34:48.479Z,76115.88
2023-04-16T10:36:29.276Z,76196.94
2023-04-16T10:38:28.911Z,76151.47
2023-04-16T10:40:02.189Z,76125.75
2023-04-16T10:41:35.195Z,76206.81
2023-04-16T10:43:08.419Z,76137.63
2023-04-16T10:44:45.189Z,76104.00
2023-04-16T10:46:24.588Z,76129.72
2023-04-16T10:47:58.931Z,76115.88
2023-04-16T10:49:31.898Z,76090.16
2023-04-16T10:51:06.042Z,76094.13
2023-04-16T10:52:40.882Z,76169.25
2023-04-16T10:54:14.826Z,76094.13
2023-04-16T10:56:04.721Z,76042.72
2023-04-16T10:57:37.818Z,76082.25
2023-04-16T10:59:11.661Z,76090.16
2023-04-16T11:00:53.642Z,76133.66
2023-04-16T11:02:29.550Z,76133.66
2023-04-16T11:04:23.305Z,76096.09
2023-04-16T11:06:13.379Z,76076.31
2023-04-16T11:07:50.041Z,76100.06
2023-04-16T11:09:48.104Z,76090.16
2023-04-16T11:11:21.709Z,76070.41
2023-04-16T11:12:56.499Z,76113.91
2023-04-16T11:14:30.155Z,76115.88
2023-04-16T11:16:07.455Z,76133.66
2023-04-16T11:17:47.621Z,76157.38
2023-04-16T11:19:20.774Z,76177.16
2023-04-16T11:20:53.777Z,76153.44
2023-04-16T11:22:27.709Z,76167.28
2023-04-16T11:24:00.930Z,76151.47
2023-04-16T11:25:36.565Z,76088.19
2023-04-16T11:27:09.698Z,76080.28
2023-04-16T11:28:43.093Z,76100.06
2023-04-16T11:30:16.228Z,76147.50
2023-04-16T11:31:55.915Z,76109.94
2023-04-16T11:33:32.035Z,76119.81
2023-04-16T11:35:19.843Z,76113.91
2023-04-16T11:36:53.032Z,76100.06
2023-04-16T11:38:37.824Z,76092.16
2023-04-16T11:40:11.765Z,76070.41
2023-04-16T11:41:51.566Z,76046.66
2023-04-16T11:43:26.945Z,76062.50
2023-04-16T11:45:01.097Z,76048.66
2023-04-16T11:46:43.713Z,76070.41
2023-04-16T11:48:17.604Z,76123.78
2023-04-16T11:49:51.872Z,76141.56
2023-04-16T11:51:25.181Z,76161.34
2023-04-16T11:53:11.653Z,76129.72
2023-04-16T11:54:51.646Z,76157.38
2023-04-16T11:56:29.924Z,76139.59
2023-04-16T11:58:13.547Z,76145.53
2023-04-16T12:00:02.012Z,76098.06
2023-04-16T12:01:51.991Z,76161.34
2023-04-16T12:03:41.594Z,76143.56
2023-04-16T12:05:35.887Z,76183.09
2023-04-16T12:07:12.282Z,76141.56
2023-04-16T12:08:45.949Z,76169.25
2023-04-16T12:10:21.395Z,76137.63
2023-04-16T12:11:54.465Z,76171.22
2023-04-16T12:13:27.495Z,76133.66
2023-04-16T12:15:03.515Z,76125.75
2023-04-16T12:16:37.624Z,76133.66
2023-04-16T12:18:11.558Z,76117.84
2023-04-16T12:20:11.580Z,76153.44
2023-04-16T12:21:46.972Z,76185.06
2023-04-16T12:23:31.346Z,76198.91
2023-04-16T12:25:08.462Z,76181.13
2023-04-16T12:26:53.593Z,76131.69
2023-04-16T12:28:41.961Z,76169.25
2023-04-16T12:30:16.900Z,76129.72
2023-04-16T12:31:51.919Z,76153.44
2023-04-16T12:33:29.999Z,76179.13
2023-04-16T12:35:06.706Z,76169.25
2023-04-16T12:36:48.428Z,76175.19
2023-04-16T12:38:24.057Z,76147.50
2023-04-16T12:39:58.626Z,76147.50
2023-04-16T12:41:32.451Z,76169.25
2023-04-16T12:43:06.527Z,76181.13
2023-04-16T12:44:40.013Z,76200.88
2023-04-16T12:46:13.674Z,76206.81
2023-04-16T12:47:47.976Z,76204.84
2023-04-16T12:49:21.529Z,76179.13
2023-04-16T12:50:55.585Z,76200.88
2023-04-16T12:52:29.698Z,76232.53
2023-04-16T12:54:04.991Z,76248.34
2023-04-16T12:55:38.274Z,76244.38
2023-04-16T12:57:12.322Z,76248.34
2023-04-16T12:58:45.794Z,76256.25
2023-04-16T13:00:20.059Z,76230.53
2023-04-16T13:01:53.937Z,76228.56
2023-04-16T13:03:27.589Z,76232.53
2023-04-16T13:05:01.157Z,76236.47
2023-04-16T13:06:37.137Z,76242.41
2023-04-16T13:08:10.113Z,76248.34
2023-04-16T13:09:44.016Z,76276.03
2023-04-16T13:11:17.274Z,76232.53
2023-04-16T13:12:50.246Z,76230.53
2023-04-16T13:14:23.273Z,76236.47
2023-04-16T13:15:55.926Z,76234.50
2023-04-16T13:17:28.906Z,76278.00
2023-04-16T13:19:01.680Z,76272.06
2023-04-16T13:20:34.565Z,76256.25
2023-04-16T13:22:07.600Z,76260.22
2023-04-16T13:23:40.793Z,76283.94
2023-04-16T13:25:13.642Z,76283.94
2023-04-16T13:26:46.938Z,76276.03
2023-04-16T13:28:19.919Z,76283.94
2023-04-16T13:29:52.955Z,76299.75
2023-04-16T13:31:26.305Z,76319.53
2023-04-16T13:32:59.630Z,76293.81
2023-04-16T13:34:33.096Z,76311.63
2023-04-16T13:36:06.841Z,76323.47
2023-04-16T13:37:39.939Z,76327.44
2023-04-16T13:39:12.769Z,76337.31
2023-04-16T13:40:45.658Z,76363.03
2023-04-16T13:42:18.459Z,76319.53
2023-04-16T13:43:51.312Z,76311.63
2023-04-16T13:45:24.577Z,76331.38
2023-04-16T13:46:57.854Z,76327.44
2023-04-16T13:48:31.170Z,76327.44
2023-04-16T13:50:04.681Z,76343.25
2023-04-16T13:51:37.851Z,76343.25
2023-04-16T13:53:11.160Z,76343.25
2023-04-16T13:54:44.324Z,76345.22
2023-04-16T13:56:25.856Z,76366.97
2023-04-16T13:57:59.023Z,76363.03
2023-04-16T13:59:32.461Z,76378.84
2023-04-16T14:01:06.253Z,76396.63
2023-04-16T14:02:40.286Z,76386.75
2023-04-16T14:04:13.587Z,76398.63
2023-04-16T14:05:46.880Z,76402.56
2023-04-16T14:07:23.012Z,76398.63
2023-04-16T14:08:56.128Z,76408.50
2023-04-16T14:10:29.430Z,76412.44
2023-04-16T14:12:03.152Z,76426.28
2023-04-16T14:13:37.378Z,76438.16
2023-04-16T14:15:11.102Z,76438.16
2023-04-16T14:16:44.911Z,76446.06
2023-04-16T14:18:18.128Z,76461.88
2023-04-16T14:19:51.453Z,76461.88
2023-04-16T14:21:24.461Z,76477.72
2023-04-16T14:22:57.694Z,76503.41
2023-04-16T14:24:31.005Z,76479.69
2023-04-16T14:26:04.523Z,76489.56
2023-04-16T14:27:37.583Z,76495.50
2023-04-16T14:29:10.753Z,76497.47
2023-04-16T14:30:44.003Z,76505.38
2023-04-16T14:32:17.432Z,76515.28
2023-04-16T14:33:50.376Z,76521.22
2023-04-16T14:35:24.054Z,76535.06
2023-04-16T14:36:57.053Z,76540.97
2023-04-16T14:38:30.432Z,76554.81
2023-04-16T14:40:08.954Z,76550.88
2023-04-16T14:41:42.004Z,76558.78
2023-04-16T14:43:15.506Z,76564.72
2023-04-16T14:44:48.946Z,76576.56
2023-04-16T14:46:22.130Z,76582.50
2023-04-16T14:47:55.455Z,76590.41
2023-04-16T14:49:28.702Z,76604.25
2023-04-16T14:51:01.883Z,76610.19
2023-04-16T14:52:34.994Z,76604.25
2023-04-16T14:54:08.629Z,76631.94
2023-04-16T14:55:41.794Z,76647.75
2023-04-16T14:57:14.835Z,76651.72
2023-04-16T14:58:47.792Z,76679.41
2023-04-16T15:00:20.998Z,76679.41
2023-04-16T15:01:56.398Z,76703.13
2023-04-16T15:03:31.455Z,76703.13
2023-04-16T15:05:04.926Z,76709.06
2023-04-16T15:06:38.451Z,76722.91
2023-04-16T15:08:12.005Z,76738.72
2023-04-16T15:09:45.789Z,76730.81
2023-04-16T15:11:18.750Z,76744.66
2023-04-16T15:12:51.925Z,76744.66
2023-04-16T15:14:24.985Z,76792.13
2023-04-16T15:15:57.677Z,76762.44
2023-04-16T15:17:30.597Z,76762.44
2023-04-16T15:19:05.136Z,76768.38
2023-04-16T15:20:38.306Z,76786.19
2023-04-16T15:22:11.256Z,76794.09
2023-04-16T15:23:44.259Z,76813.88
2023-04-16T15:25:17.774Z,76817.81
2023-04-16T15:26:51.552Z,76825.72
2023-04-16T15:28:25.245Z,76829.69
2023-04-16T15:29:58.287Z,76829.69
2023-04-16T15:31:31.238Z,76837.59
2023-04-16T15:33:04.697Z,76853.41
2023-04-16T15:34:37.664Z,76855.41
2023-04-16T15:36:11.572Z,76857.38
2023-04-16T15:37:44.646Z,76873.19
2023-04-16T15:39:17.728Z,76875.16
2023-04-16T15:40:50.826Z,76892.97
2023-04-16T15:42:24.612Z,76896.94
2023-04-16T15:43:58.089Z,76904.84
2023-04-16T15:45:32.084Z,76914.72
2023-04-16T15:47:06.728Z,76920.66
2023-04-16T15:48:39.636Z,76930.53
2023-04-16T15:50:12.484Z,76930.53
2023-04-16T15:51:45.369Z,76936.47
2023-04-16T15:53:18.522Z,76960.22
2023-04-16T15:54:51.654Z,76954.28
2023-04-16T15:56:26.179Z,76944.38
2023-04-16T15:57:59.520Z,76974.06
2023-04-16T15:59:33.196Z,76954.28
2023-04-16T16:01:06.556Z,76964.16
2023-04-16T16:02:40.874Z,76968.13
2023-04-16T16:04:14.157Z,76987.88
2023-04-16T16:05:48.669Z,76985.91
2023-04-16T16:07:21.892Z,77003.72
2023-04-16T16:08:55.482Z,77007.66
2023-04-16T16:10:28.604Z,77021.50
2023-04-16T16:12:02.213Z,77021.50
2023-04-16T16:13:37.230Z,77031.41
2023-04-16T16:15:11.425Z,77039.31
2023-04-16T16:16:44.511Z,77047.22
2023-04-16T16:18:17.911Z,77057.09
2023-04-16T16:19:52.629Z,77061.06
2023-04-16T16:21:26.525Z,77068.97
2023-04-16T16:22:59.501Z,77063.03
2023-04-16T16:24:32.534Z,77067.00
2023-04-16T16:26:06.602Z,77080.84
2023-04-16T16:27:40.918Z,77088.75
2023-04-16T16:29:14.367Z,77132.25
2023-04-16T16:30:48.049Z,77098.63
2023-04-16T16:32:21.084Z,77096.66
2023-04-16T16:33:54.277Z,77104.56
2023-04-16T16:35:27.279Z,77108.53
2023-04-16T16:37:00.334Z,77156.00
2023-04-16T16:38:33.466Z,77132.25
2023-04-16T16:40:07.974Z,77132.25
2023-04-16T16:41:43.819Z,77146.09
2023-04-16T16:43:17.377Z,77150.06
2023-04-16T16:44:50.406Z,77156.00
2023-04-16T16:46:23.335Z,77154.00
2023-04-16T16:47:57.001Z,77165.88
2023-04-16T16:49:30.128Z,77173.78
2023-04-16T16:51:03.011Z,77181.69
2023-04-16T16:52:36.596Z,77185.66
2023-04-16T16:54:09.795Z,77193.56
2023-04-16T16:55:43.104Z,77193.56
2023-04-16T16:57:16.269Z,77207.41
2023-04-16T16:58:49.505Z,77211.38
2023-04-16T17:00:23.190Z,77217.31
2023-04-16T17:01:57.074Z,77227.19
2023-04-16T17:03:30.016Z,77221.25
2023-04-16T17:05:02.983Z,77227.19
2023-04-16T17:06:36.390Z,77237.06
2023-04-16T17:08:09.460Z,77241.03
2023-04-16T17:09:42.350Z,77246.97
2023-04-16T17:11:18.656Z,77243.00
2023-04-16T17:12:52.180Z,77264.75
2023-04-16T17:14:25.490Z,77256.84
2023-04-16T17:15:58.923Z,77256.84
2023-04-16T17:17:32.862Z,77264.75
2023-04-16T17:19:05.974Z,77274.66
2023-04-16T17:20:39.257Z,77280.59
2023-04-16T17:22:12.277Z,77280.59
2023-04-16T17:23:44.997Z,77288.50
2023-04-16T17:25:17.973Z,77288.50
2023-04-16T17:26:50.948Z,77290.47
2023-04-16T17:28:23.738Z,77300.38
2023-04-16T17:30:00.354Z,77304.31
2023-04-16T17:31:33.322Z,77308.28
2023-04-16T17:33:06.936Z,77318.16
2023-04-16T17:34:39.893Z,77343.88
2023-04-16T17:36:13.026Z,77316.19
2023-04-16T17:37:46.004Z,77326.06
2023-04-16T17:39:19.653Z,77379.47
2023-04-16T17:40:52.726Z,77335.97
2023-04-16T17:42:26.018Z,77339.91
2023-04-16T17:43:59.900Z,77343.88
2023-04-16T17:45:34.165Z,77339.91
2023-04-16T17:47:07.272Z,77345.84
2023-04-16T17:48:40.561Z,77359.69
2023-04-16T17:50:13.585Z,77359.69
2023-04-16T17:51:47.107Z,77357.72
2023-04-16T17:53:21.087Z,77369.59
2023-04-16T17:55:00.419Z,77373.53
2023-04-16T17:56:33.334Z,77405.19
2023-04-16T17:58:06.706Z,77383.44
2023-04-16T17:59:39.834Z,77446.72
2023-04-16T18:01:12.475Z,77379.47
2023-04-16T18:02:45.735Z,77393.31
2023-04-16T18:04:19.426Z,77399.25
2023-04-16T18:05:52.636Z,77399.25
2023-04-16T18:07:25.722Z,77405.19
2023-04-16T18:08:59.110Z,77411.13
2023-04-16T18:10:33.312Z,77413.09
2023-04-16T18:12:07.520Z,77415.06
2023-04-16T18:13:41.079Z,77417.06
2023-04-16T18:15:13.868Z,77423.00
2023-04-16T18:16:47.261Z,77419.03
2023-04-16T18:18:21.592Z,77423.00
2023-04-16T18:19:54.771Z,77434.84
2023-04-16T18:21:27.853Z,77444.75
2023-04-16T18:23:01.704Z,77446.72
2023-04-16T18:24:36.775Z,77452.66
2023-04-16T18:26:11.057Z,77450.69
2023-04-16T18:27:45.664Z,77454.63
2023-04-16T18:29:22.502Z,77454.63